Pointe-Au-Pere, Canada
Current Conditions -  °F | °C
As of 11:00 AM on Friday 24 Oct 2014 (Local Time) from CYYY Reporting Station
Broken Clouds Broken Clouds  
Wind Chill: 36°   Ceiling: 6000
Heat Index: 41°   Visibility: 30mi
Dew Point: 36°   Wind: 8mph
Humidity: 81%   Direction: 40°NE
Pressure: 29.93"   Gusts: NA
Location:  48.52°N, 68.47°W
Report Text: CYYY 241500Z 04007KT 30SM SCT020 BKN060 05/02 A2993 RMK SC3SC4 SLP137
Loading
Personal Weather Stations






























Interactive Weather Map
Tropical Storm Tracking
New forecast layout! Learn more

10-Day Weather Forecast

Advertisements
Track Severe Weather on mobile